Whitehall, United Kingdom
Current Conditions -  °F | °C
As of 7:50 AM on Thursday 29 Jan 2015 (Local Time) from EGVO Reporting Station
Few Clouds Few Clouds  
Wind Chill: 25°   Ceiling: Unl
Heat Index: 36°   Visibility: 6mi
Dew Point: 30°   Wind: 20mph
Humidity: 81%   Direction: 220°SW
Pressure: 29.23"   Gusts: NA
Location:  51.12°N, 0.88°W
Report Text: EGVO 290750Z 22017KT 9999 FEW010 02/M01 Q0990 BLU TEMPO SCT010 GRN
Loading
Personal Weather Stations






























Interactive Weather Map New forecast layout! Learn more

10-Day Weather Forecast

Advertisements
Track Severe Weather on mobile